Time;durP1;ratioP1;P1;durP2;ratioP2;P2;SDS_P1;SDS_P2;PMS_P1;PMS_P2;Temp;Humidity;BMP_temperature;BMP_pressure;BME280_temperature;BME280_humidity;BME280_pressure;Samples;Min_cycle;Max_cycle;Signal;HPM_P1;HPM_P2
2024/01/14 00:00:49;;;;;;;61.10;29.30;;;;;;;-3.57;71.83;100844.44;107163;1257;107741;-67
2024/01/14 00:03:37;;;;;;;58.60;29.20;;;;;;;-3.57;72.17;100841.30;107144;1257;99291;-67
2024/01/14 00:06:06;;;;;;;58.40;29.00;;;;;;;-3.59;72.40;100836.60;107170;1256;99237;-66
2024/01/14 00:08:34;;;;;;;59.10;29.80;;;;;;;-3.59;72.27;100833.63;107210;1257;113283;-66
2024/01/14 00:11:04;;;;;;;59.60;30.60;;;;;;;-3.60;72.09;100828.22;107198;1257;108864;-66
2024/01/14 00:13:32;;;;;;;60.20;29.00;;;;;;;-3.60;72.23;100827.02;107229;1257;108301;-66
2024/01/14 00:16:00;;;;;;;61.30;28.90;;;;;;;-3.63;72.52;100821.48;107166;1257;99196;-66
2024/01/14 00:18:28;;;;;;;77.90;34.30;;;;;;;-3.70;72.21;100822.56;107201;1257;99900;-67
2024/01/14 00:20:57;;;;;;;62.50;30.10;;;;;;;-3.78;72.15;100822.23;107181;1260;113133;-69
2024/01/14 00:23:25;;;;;;;60.60;29.80;;;;;;;-3.83;72.33;100816.95;107212;1256;108723;-67
2024/01/14 00:25:54;;;;;;;67.70;31.50;;;;;;;-3.89;72.10;100816.42;107158;1257;107891;-67
2024/01/14 00:28:23;;;;;;;62.10;27.90;;;;;;;-3.96;72.00;100807.83;107171;1257;99284;-65
2024/01/14 00:30:51;;;;;;;62.00;29.00;;;;;;;-4.02;72.09;100812.02;107295;1257;99731;-66
2024/01/14 00:33:19;;;;;;;61.60;29.40;;;;;;;-4.04;72.68;100807.20;107291;1257;112225;-67
2024/01/14 00:35:48;;;;;;;56.70;27.60;;;;;;;-4.04;72.84;100801.40;107241;1257;107903;-66
2024/01/14 00:38:17;;;;;;;54.30;27.00;;;;;;;-4.05;72.39;100795.14;107284;1257;107308;-66
2024/01/14 00:40:45;;;;;;;64.80;28.90;;;;;;;-4.09;72.57;100798.56;107240;1257;99230;-66
2024/01/14 00:43:13;;;;;;;56.50;28.00;;;;;;;-4.11;72.64;100794.95;107210;1256;99730;-67
2024/01/14 00:45:42;;;;;;;54.10;28.30;;;;;;;-4.14;72.39;100785.94;107212;1257;113078;-67
2024/01/14 00:48:13;;;;;;;49.60;26.10;;;;;;;-4.20;72.39;100787.66;107133;1257;108558;-66
2024/01/14 00:50:42;;;;;;;49.20;25.10;;;;;;;-4.27;72.43;100783.98;107242;1258;107583;-67
2024/01/14 00:53:10;;;;;;;44.50;22.30;;;;;;;-4.34;72.13;100788.57;107182;1260;99269;-66
2024/01/14 00:55:39;;;;;;;48.90;24.60;;;;;;;-4.40;72.22;100789.91;107284;1256;99730;-66
2024/01/14 00:58:07;;;;;;;48.80;23.40;;;;;;;-4.42;72.31;100788.59;107198;1257;112908;-66
2024/01/14 01:00:35;;;;;;;47.30;23.30;;;;;;;-4.46;72.85;100779.41;107177;1257;108459;-68
2024/01/14 01:03:05;;;;;;;44.70;23.40;;;;;;;-4.49;72.76;100776.69;107138;1260;109398;-66
2024/01/14 01:05:34;;;;;;;52.10;25.00;;;;;;;-4.47;73.06;100772.09;107089;1257;99189;-66
2024/01/14 01:08:03;;;;;;;43.50;23.00;;;;;;;-4.46;72.72;100779.23;107190;1257;99210;-66
2024/01/14 01:10:31;;;;;;;47.80;23.20;;;;;;;-4.45;72.53;100780.97;107189;1256;113015;-66
2024/01/14 01:13:00;;;;;;;41.90;22.60;;;;;;;-4.47;72.73;100777.86;107167;1260;107663;-67
2024/01/14 01:15:28;;;;;;;43.00;22.50;;;;;;;-4.50;72.78;100775.66;107158;1256;108172;-67
2024/01/14 01:17:57;;;;;;;49.30;24.20;;;;;;;-4.57;72.23;100770.05;107221;1256;99239;-66
2024/01/14 01:20:26;;;;;;;44.90;22.20;;;;;;;-4.64;72.27;100769.01;107288;1256;99217;-65
2024/01/14 01:22:54;;;;;;;44.70;21.70;;;;;;;-4.69;72.72;100763.21;107221;1259;113124;-66
2024/01/14 01:25:23;;;;;;;39.70;21.50;;;;;;;-4.76;72.60;100758.28;107147;1257;108219;-67
2024/01/14 01:27:52;;;;;;;39.70;22.10;;;;;;;-4.83;72.77;100752.00;107172;1260;107871;-66
2024/01/14 01:30:20;;;;;;;39.30;20.60;;;;;;;-4.88;72.51;100746.52;107263;1258;99284;-67
2024/01/14 01:32:49;;;;;;;40.00;21.30;;;;;;;-4.92;72.67;100742.77;107267;1255;99111;-66
2024/01/14 01:35:18;;;;;;;31.30;18.90;;;;;;;-4.93;72.62;100733.00;107276;1257;113109;-66
2024/01/14 01:37:46;;;;;;;39.20;20.00;;;;;;;-4.95;72.60;100727.45;107259;1257;108039;-66
2024/01/14 01:40:14;;;;;;;41.80;21.00;;;;;;;-4.98;72.64;100725.25;107261;1257;107814;-67
2024/01/14 01:42:43;;;;;;;39.20;19.80;;;;;;;-5.01;72.60;100718.16;107228;1257;99204;-67
2024/01/14 01:45:12;;;;;;;39.80;20.30;;;;;;;-5.06;72.75;100706.20;107224;1255;99171;-66
2024/01/14 01:47:40;;;;;;;40.60;19.90;;;;;;;-5.09;72.74;100706.64;107296;1257;112174;-66
2024/01/14 01:50:09;;;;;;;39.10;20.50;;;;;;;-5.15;72.85;100701.90;107302;1256;107961;-66
2024/01/14 01:52:39;;;;;;;37.10;18.50;;;;;;;-5.20;73.03;100695.89;107165;1257;108674;-68
2024/01/14 01:55:10;;;;;;;38.50;20.30;;;;;;;-5.23;72.71;100694.39;107241;1257;99345;-66
2024/01/14 01:57:39;;;;;;;36.00;19.80;;;;;;;-5.28;72.86;100691.19;107322;1256;99081;-67
2024/01/14 02:00:10;;;;;;;42.10;21.30;;;;;;;-5.37;72.17;100685.80;107275;1257;114115;-67
2024/01/14 02:02:44;;;;;;;41.60;21.00;;;;;;;-5.42;72.36;100684.00;107319;1255;108799;-67
2024/01/14 02:05:13;;;;;;;42.40;19.30;;;;;;;-5.48;72.72;100677.14;107290;1259;108169;-66
2024/01/14 02:07:43;;;;;;;38.30;19.90;;;;;;;-5.50;72.06;100673.71;107183;1259;99196;-67
2024/01/14 02:10:12;;;;;;;41.70;18.80;;;;;;;-5.55;71.97;100678.72;107134;1256;99117;-66
2024/01/14 02:12:40;;;;;;;40.30;19.90;;;;;;;-5.65;71.93;100678.93;107239;1257;113306;-66
2024/01/14 02:15:09;;;;;;;40.50;19.40;;;;;;;-5.73;71.96;100672.30;107275;1257;108642;-66
2024/01/14 02:17:37;;;;;;;33.80;17.80;;;;;;;-5.82;71.82;100668.33;107247;1257;106969;-67
2024/01/14 02:20:08;;;;;;;41.30;18.90;;;;;;;-5.89;71.94;100663.59;107264;1255;99197;-67
2024/01/14 02:22:40;;;;;;;32.50;18.20;;;;;;;-5.91;72.51;100662.77;107289;1257;99100;-67
2024/01/14 02:25:08;;;;;;;37.90;18.90;;;;;;;-5.93;72.38;100661.59;107245;1256;112343;-67
2024/01/14 02:27:37;;;;;;;39.00;18.40;;;;;;;-6.02;72.00;100659.00;107291;1256;107885;-66
2024/01/14 02:30:09;;;;;;;36.40;17.80;;;;;;;-6.09;72.22;100656.89;107271;1256;108071;-66
2024/01/14 02:32:38;;;;;;;50.90;25.20;;;;;;;-6.14;72.07;100651.23;107285;1257;99757;-66
2024/01/14 02:35:08;;;;;;;40.10;19.40;;;;;;;-6.17;72.16;100651.13;107283;1257;99795;-67
2024/01/14 02:37:43;;;;;;;35.30;18.90;;;;;;;-6.21;72.19;100651.90;107274;1257;113674;-66
2024/01/14 02:40:12;;;;;;;35.30;17.70;;;;;;;-6.24;71.96;100653.89;107250;1257;108556;-67
2024/01/14 02:42:40;;;;;;;35.60;17.90;;;;;;;-6.29;72.02;100647.88;107106;1256;108462;-66
2024/01/14 02:45:10;;;;;;;39.90;18.40;;;;;;;-6.34;71.93;100650.25;107257;1257;99218;-66
2024/01/14 02:47:39;;;;;;;32.50;17.60;;;;;;;-6.38;71.95;100647.20;107210;1256;99071;-66
2024/01/14 02:50:08;;;;;;;42.10;17.10;;;;;;;-6.40;72.11;100646.04;107138;1257;113872;-66
2024/01/14 02:52:37;;;;;;;47.80;19.20;;;;;;;-6.44;71.87;100647.66;107155;1257;108115;-66
2024/01/14 02:55:06;;;;;;;38.20;18.00;;;;;;;-6.47;71.82;100650.34;107105;1256;108039;-66
2024/01/14 02:57:34;;;;;;;40.10;20.00;;;;;;;-6.50;71.80;100649.88;107152;1257;99105;-67
2024/01/14 03:00:04;;;;;;;38.50;20.00;;;;;;;-6.49;72.06;100658.77;107101;1256;99849;-67
2024/01/14 03:02:33;;;;;;;43.20;20.50;;;;;;;-6.48;71.97;100648.61;107182;1259;113750;-68
2024/01/14 03:05:01;;;;;;;43.90;21.00;;;;;;;-6.47;72.04;100650.00;107148;1257;108471;-67
2024/01/14 03:07:29;;;;;;;39.30;20.40;;;;;;;-6.46;72.22;100652.77;107083;1256;107294;-66
2024/01/14 03:09:57;;;;;;;42.60;21.10;;;;;;;-6.43;72.31;100656.55;107079;1256;99205;-67
2024/01/14 03:12:26;;;;;;;41.30;17.50;;;;;;;-6.41;72.36;100655.64;107136;1256;99084;-67
2024/01/14 03:14:54;;;;;;;48.00;20.60;;;;;;;-6.44;72.26;100652.56;107123;1257;113618;-67
2024/01/14 03:17:23;;;;;;;55.90;23.70;;;;;;;-6.45;72.07;100645.58;107232;1256;107049;-66
2024/01/14 03:19:51;;;;;;;40.40;19.10;;;;;;;-6.44;71.93;100643.48;107132;1257;108579;-66
2024/01/14 03:22:20;;;;;;;40.70;19.10;;;;;;;-6.46;71.81;100634.27;107269;1257;99224;-66
2024/01/14 03:24:48;;;;;;;47.70;20.90;;;;;;;-6.48;72.14;100638.50;107332;1259;99738;-65
2024/01/14 03:27:16;;;;;;;46.90;21.30;;;;;;;-6.49;72.00;100639.21;107273;1257;112594;-67
2024/01/14 03:29:44;;;;;;;48.20;20.70;;;;;;;-6.48;71.98;100638.50;107130;1256;108074;-66
2024/01/14 03:32:12;;;;;;;51.00;21.50;;;;;;;-6.48;72.00;100629.42;107150;1257;108547;-67
2024/01/14 03:34:41;;;;;;;54.60;22.20;;;;;;;-6.52;71.83;100623.23;107266;1257;99279;-67
2024/01/14 03:37:09;;;;;;;45.40;20.20;;;;;;;-6.58;71.98;100623.35;107348;1257;99298;-68
2024/01/14 03:39:37;;;;;;;46.00;20.90;;;;;;;-6.65;71.44;100623.66;107336;1257;113858;-66
2024/01/14 03:42:06;;;;;;;51.70;20.30;;;;;;;-6.80;71.04;100621.86;107309;1257;108040;-68
2024/01/14 03:44:34;;;;;;;42.80;19.70;;;;;;;-6.91;70.75;100626.95;107343;1256;108541;-68
2024/01/14 03:47:03;;;;;;;45.50;19.60;;;;;;;-7.01;70.83;100621.02;107133;1257;99115;-66
2024/01/14 03:49:32;;;;;;;44.00;20.40;;;;;;;-7.09;70.59;100618.55;107342;1257;99761;-66
2024/01/14 03:52:00;;;;;;;47.80;20.30;;;;;;;-7.17;70.86;100607.02;107291;1257;112472;-66
2024/01/14 03:54:28;;;;;;;46.50;20.80;;;;;;;-7.22;70.83;100600.48;107342;1257;107847;-66
2024/01/14 03:56:57;;;;;;;38.00;17.60;;;;;;;-7.26;70.75;100600.22;107271;1256;107799;-67
2024/01/14 03:59:25;;;;;;;41.80;19.30;;;;;;;-7.32;70.68;100600.32;107269;1257;99227;-67
2024/01/14 04:01:53;;;;;;;41.00;19.60;;;;;;;-7.35;70.69;100602.11;107281;1256;99234;-67
2024/01/14 04:04:22;;;;;;;48.30;21.00;;;;;;;-7.44;70.50;100598.96;107124;1256;112278;-66
2024/01/14 04:06:50;;;;;;;42.10;19.60;;;;;;;-7.56;70.34;100592.70;107074;1257;109165;-66
2024/01/14 04:09:19;;;;;;;47.80;18.70;;;;;;;-7.62;70.62;100585.83;107277;1256;107621;-66
2024/01/14 04:11:47;;;;;;;47.50;20.50;;;;;;;-7.64;70.87;100584.30;107312;1259;99276;-67
2024/01/14 04:14:16;;;;;;;84.90;27.80;;;;;;;-7.67;70.78;100585.56;107349;1257;99645;-66
2024/01/14 04:16:44;;;;;;;55.40;22.00;;;;;;;-7.70;71.08;100585.10;107326;1256;113043;-67
2024/01/14 04:19:12;;;;;;;50.00;20.50;;;;;;;-7.75;70.86;100577.67;107299;1256;108522;-67
2024/01/14 04:21:41;;;;;;;52.10;20.30;;;;;;;-7.74;70.96;100578.55;107312;1259;108511;-67
2024/01/14 04:24:09;;;;;;;56.20;23.20;;;;;;;-7.76;71.20;100573.70;107290;1256;99183;-66
2024/01/14 04:26:38;;;;;;;48.00;20.90;;;;;;;-7.77;71.23;100568.48;107335;1259;99505;-67
2024/01/14 04:29:06;;;;;;;50.00;20.40;;;;;;;-7.74;71.55;100563.21;107122;1256;111829;-67
2024/01/14 04:31:35;;;;;;;40.30;18.30;;;;;;;-7.70;71.39;100565.77;107095;1256;108107;-67
2024/01/14 04:34:04;;;;;;;40.90;18.80;;;;;;;-7.71;71.28;100560.56;107101;1256;107365;-67
2024/01/14 04:36:32;;;;;;;40.80;18.00;;;;;;;-7.70;71.27;100554.98;107165;1256;99333;-67
2024/01/14 04:39:02;;;;;;;44.40;18.50;;;;;;;-7.73;70.72;100554.84;107299;1257;99797;-67
2024/01/14 04:41:30;;;;;;;43.90;17.50;;;;;;;-7.76;70.99;100553.34;107296;1257;112428;-67
2024/01/14 04:43:58;;;;;;;34.70;16.40;;;;;;;-7.77;70.95;100553.00;107139;1256;108820;-67
2024/01/14 04:46:27;;;;;;;43.60;17.50;;;;;;;-7.74;71.18;100548.41;107162;1260;106337;-67
2024/01/14 04:48:55;;;;;;;45.90;19.70;;;;;;;-7.69;71.31;100547.64;107146;1256;99193;-67
2024/01/14 04:51:24;;;;;;;46.70;19.20;;;;;;;-7.71;71.05;100551.66;107205;1256;99779;-66
2024/01/14 04:53:52;;;;;;;37.10;18.20;;;;;;;-7.71;71.17;100553.60;107136;1256;112175;-67
2024/01/14 04:56:21;;;;;;;44.90;21.60;;;;;;;-7.72;70.83;100546.12;107147;1260;108723;-67
2024/01/14 04:58:49;;;;;;;52.90;22.80;;;;;;;-7.76;70.75;100543.94;107158;1256;107808;-67
2024/01/14 05:01:18;;;;;;;65.80;25.40;;;;;;;-7.80;70.69;100530.77;107118;1260;99189;-67
2024/01/14 05:03:46;;;;;;;57.10;24.00;;;;;;;-7.81;70.86;100523.13;107155;1260;99115;-67
2024/01/14 05:06:15;;;;;;;57.40;21.30;;;;;;;-7.81;70.99;100523.98;107157;1260;113467;-67
2024/01/14 05:08:43;;;;;;;58.10;22.10;;;;;;;-7.83;70.85;100523.14;107135;1257;107958;-67
2024/01/14 05:11:11;;;;;;;37.80;16.70;;;;;;;-7.87;70.50;100517.47;107126;1256;107911;-67
2024/01/14 05:13:40;;;;;;;47.60;18.70;;;;;;;-7.98;69.97;100520.26;107115;1256;99420;-66
2024/01/14 05:16:10;;;;;;;34.50;16.00;;;;;;;-8.06;69.89;100523.35;107159;1256;99731;-66
2024/01/14 05:18:38;;;;;;;39.10;17.30;;;;;;;-8.12;69.96;100520.66;107346;1258;113196;-67
2024/01/14 05:21:06;;;;;;;43.70;17.30;;;;;;;-8.20;69.90;100518.52;107282;1257;107272;-67
2024/01/14 05:23:35;;;;;;;39.40;16.20;;;;;;;-8.18;70.15;100511.86;107159;1256;107848;-67
2024/01/14 05:26:03;;;;;;;40.10;18.30;;;;;;;-8.12;70.46;100508.30;107158;1256;99327;-68
2024/01/14 05:28:32;;;;;;;41.70;18.80;;;;;;;-8.09;70.51;100503.38;107226;1256;99855;-66
2024/01/14 05:31:00;;;;;;;34.10;16.20;;;;;;;-8.07;70.45;100500.23;107281;1257;113278;-67
2024/01/14 05:33:29;;;;;;;35.50;15.40;;;;;;;-8.07;70.49;100502.83;107286;1257;107664;-67
2024/01/14 05:35:57;;;;;;;33.00;15.50;;;;;;;-8.08;70.32;100505.10;107264;1256;107385;-67
2024/01/14 05:38:25;;;;;;;26.60;15.00;;;;;;;-8.15;69.93;100511.30;107276;1255;99190;-67
2024/01/14 05:40:55;;;;;;;33.70;15.80;;;;;;;-8.20;70.06;100511.55;107300;1257;99084;-67
2024/01/14 05:43:23;;;;;;;31.20;14.40;;;;;;;-8.24;69.82;100507.63;107238;1256;113285;-66
2024/01/14 05:45:52;;;;;;;34.70;15.80;;;;;;;-8.29;69.85;100493.77;107182;1256;108351;-68
2024/01/14 05:48:20;;;;;;;30.70;14.70;;;;;;;-8.30;69.94;100488.58;107146;1256;108382;-67
2024/01/14 05:50:51;;;;;;;38.70;15.10;;;;;;;-8.31;70.07;100490.14;107141;1257;99290;-66
2024/01/14 05:53:20;;;;;;;28.60;14.40;;;;;;;-8.31;69.74;100495.73;107051;1256;99763;-67
2024/01/14 05:55:48;;;;;;;34.20;15.30;;;;;;;-8.33;69.81;100500.10;107190;1256;113543;-66
2024/01/14 05:58:16;;;;;;;30.60;16.30;;;;;;;-8.35;69.57;100500.81;107148;1256;107844;-67
2024/01/14 06:00:44;;;;;;;32.10;15.90;;;;;;;-8.38;69.59;100502.61;107138;1256;108640;-67
2024/01/14 06:03:13;;;;;;;35.20;16.00;;;;;;;-8.39;69.63;100495.33;107164;1256;99202;-66
2024/01/14 06:05:42;;;;;;;28.30;15.10;;;;;;;-8.44;69.38;100489.65;107194;1256;99124;-68
2024/01/14 06:08:11;;;;;;;29.60;15.30;;;;;;;-8.41;69.73;100483.88;107152;1257;112555;-67
2024/01/14 06:10:39;;;;;;;32.30;15.60;;;;;;;-8.38;69.79;100487.82;107165;1256;109024;-67
2024/01/14 06:13:08;;;;;;;36.40;15.10;;;;;;;-8.34;69.84;100487.58;107183;1255;107635;-66
2024/01/14 06:15:36;;;;;;;28.80;15.10;;;;;;;-8.35;69.60;100494.39;107278;1257;99227;-66
2024/01/14 06:18:05;;;;;;;40.70;16.50;;;;;;;-8.40;69.49;100489.25;107359;1255;99269;-67
2024/01/14 06:20:33;;;;;;;40.30;16.70;;;;;;;-8.43;69.28;100483.90;107335;1257;112739;-67
2024/01/14 06:23:01;;;;;;;29.30;15.20;;;;;;;-8.43;69.44;100482.33;107295;1255;108970;-66
2024/01/14 06:25:29;;;;;;;31.70;15.50;;;;;;;-8.45;69.15;100480.63;107305;1255;107816;-69
2024/01/14 06:27:58;;;;;;;28.50;14.70;;;;;;;-8.49;69.16;100482.63;107261;1257;99313;-68
2024/01/14 06:30:26;;;;;;;36.90;17.20;;;;;;;-8.45;69.33;100486.88;107279;1259;99187;-67
2024/01/14 06:32:55;;;;;;;37.20;18.10;;;;;;;-8.44;69.41;100482.16;107325;1256;113348;-68
2024/01/14 06:35:24;;;;;;;34.70;17.60;;;;;;;-8.46;69.35;100479.93;107279;1255;109454;-68
2024/01/14 06:37:52;;;;;;;31.60;17.50;;;;;;;-8.43;69.54;100484.23;107263;1255;109169;-67
2024/01/14 06:40:21;;;;;;;35.10;16.40;;;;;;;-8.40;69.73;100486.11;107317;1256;99322;-67
2024/01/14 06:42:59;;;;;;;33.20;17.50;;;;;;;-8.43;69.15;100484.41;107130;1256;99800;-67
2024/01/14 06:45:27;;;;;;;40.00;21.80;;;;;;;-8.47;69.06;100482.59;107198;1256;113601;-67
2024/01/14 06:47:56;;;;;;;40.50;19.50;;;;;;;-8.50;68.96;100478.46;107243;1257;108108;-67
2024/01/14 06:50:25;;;;;;;43.10;20.50;;;;;;;-8.51;69.05;100480.21;107292;1255;108385;-67
2024/01/14 06:52:53;;;;;;;36.40;18.90;;;;;;;-8.48;69.22;100478.78;107266;1257;99224;-65
2024/01/14 06:55:21;;;;;;;41.20;18.60;;;;;;;-8.46;69.30;100484.28;107355;1256;99074;-67
2024/01/14 06:57:49;;;;;;;37.10;18.70;;;;;;;-8.43;69.25;100485.81;107314;1257;113526;-68
2024/01/14 07:00:18;;;;;;;39.50;18.80;;;;;;;-8.36;69.69;100485.88;107282;1257;108591;-67
2024/01/14 07:02:46;;;;;;;39.20;19.00;;;;;;;-8.28;69.72;100478.64;107286;1256;107539;-67
2024/01/14 07:05:15;;;;;;;36.10;17.80;;;;;;;-8.24;69.41;100473.16;107276;1257;99262;-71
2024/01/14 07:07:44;;;;;;;33.60;15.80;;;;;;;-8.27;69.01;100468.52;107274;1257;99110;-67
2024/01/14 07:10:13;;;;;;;33.90;16.40;;;;;;;-8.28;69.27;100462.27;107285;1257;114330;-68
2024/01/14 07:12:42;;;;;;;36.60;17.20;;;;;;;-8.22;69.42;100464.44;107337;1257;108640;-68
2024/01/14 07:15:10;;;;;;;39.40;18.00;;;;;;;-8.09;69.77;100465.81;107293;1256;107752;-67
2024/01/14 07:17:38;;;;;;;39.00;19.40;;;;;;;-7.97;69.93;100465.08;107218;1256;99201;-67
2024/01/14 07:20:23;;;;;;;35.40;18.50;;;;;;;-7.84;70.04;100464.84;107198;1256;99283;-68
2024/01/14 07:22:52;;;;;;;44.30;19.60;;;;;;;-7.72;69.97;100460.98;107271;1256;113775;-67
2024/01/14 07:25:21;;;;;;;40.90;19.80;;;;;;;-7.58;70.29;100459.49;107293;1257;107842;-67
2024/01/14 07:27:49;;;;;;;41.30;19.60;;;;;;;-7.45;70.25;100458.04;107309;1255;107739;-66
2024/01/14 07:30:18;;;;;;;39.80;17.70;;;;;;;-7.33;70.20;100457.45;107229;1255;99199;-68
2024/01/14 07:32:47;;;;;;;38.00;17.40;;;;;;;-7.22;70.16;100460.55;107350;1257;99730;-66
2024/01/14 07:35:15;;;;;;;40.40;19.10;;;;;;;-7.10;70.23;100462.58;107280;1257;113314;-67
2024/01/14 07:37:43;;;;;;;34.80;16.80;;;;;;;-6.97;70.32;100459.86;107268;1255;108296;-67
2024/01/14 07:40:12;;;;;;;53.60;23.50;;;;;;;-6.91;69.78;100458.52;107276;1257;108286;-67
2024/01/14 07:42:41;;;;;;;61.20;27.20;;;;;;;-6.84;69.77;100456.81;107269;1256;99185;-68
2024/01/14 07:45:09;;;;;;;51.20;23.50;;;;;;;-6.70;70.19;100451.95;107187;1256;99233;-67
2024/01/14 07:47:39;;;;;;;46.70;22.60;;;;;;;-6.51;70.46;100443.67;107215;1256;112604;-68
2024/01/14 07:50:08;;;;;;;45.80;21.90;;;;;;;-6.35;70.34;100441.71;107185;1260;107475;-67
2024/01/14 07:52:36;;;;;;;45.30;21.10;;;;;;;-6.17;70.24;100440.42;107193;1256;106803;-66
2024/01/14 07:55:05;;;;;;;42.50;19.40;;;;;;;-6.02;70.09;100439.15;107172;1256;99330;-66
2024/01/14 07:57:34;;;;;;;44.40;21.20;;;;;;;-5.89;69.84;100434.78;107207;1257;99074;-66
2024/01/14 08:00:03;;;;;;;41.30;20.20;;;;;;;-5.76;69.64;100433.23;107210;1256;112910;-67
2024/01/14 08:02:39;;;;;;;47.10;21.70;;;;;;;-5.63;69.61;100437.98;107267;1256;107345;-68
2024/01/14 08:05:09;;;;;;;46.10;20.80;;;;;;;-5.59;69.07;100436.09;107105;1256;107039;-67
2024/01/14 08:07:41;;;;;;;51.90;23.50;;;;;;;-5.51;69.30;100434.83;107189;1256;99216;-68
2024/01/14 08:10:10;;;;;;;54.80;23.90;;;;;;;-5.45;68.99;100429.61;107199;1256;99277;-67
2024/01/14 08:12:38;;;;;;;57.00;25.70;;;;;;;-5.42;68.85;100433.89;107221;1257;113396;-66
2024/01/14 08:15:10;;;;;;;53.90;23.70;;;;;;;-5.34;69.06;100428.09;107240;1256;108657;-68
2024/01/14 08:17:38;;;;;;;55.90;25.00;;;;;;;-5.23;69.05;100427.58;107321;1256;108124;-67
2024/01/14 08:20:10;;;;;;;49.50;24.30;;;;;;;-5.05;69.30;100427.94;107292;1256;99191;-68
2024/01/14 08:22:39;;;;;;;57.50;25.90;;;;;;;-4.84;69.46;100421.73;107345;1257;99177;-67
2024/01/14 08:25:09;;;;;;;53.70;25.80;;;;;;;-4.67;69.43;100418.04;107226;1256;111939;-67
2024/01/14 08:27:38;;;;;;;51.20;24.40;;;;;;;-4.52;68.86;100419.69;107333;1255;108623;-67
2024/01/14 08:30:07;;;;;;;57.00;26.30;;;;;;;-4.41;68.64;100420.73;107304;1259;108082;-67
2024/01/14 08:32:36;;;;;;;51.60;24.70;;;;;;;-4.28;68.69;100417.36;107299;1256;99218;-67
2024/01/14 08:35:05;;;;;;;58.30;26.90;;;;;;;-4.16;68.59;100415.20;107286;1257;99073;-66
2024/01/14 08:37:33;;;;;;;55.90;24.30;;;;;;;-4.06;68.20;100413.66;107301;1256;113559;-67
2024/01/14 08:40:02;;;;;;;63.00;26.70;;;;;;;-3.85;67.74;100414.34;107243;1256;109590;-68
2024/01/14 08:42:31;;;;;;;55.30;26.60;;;;;;;-3.40;68.06;100412.94;107233;1259;107136;-67
2024/01/14 08:44:59;;;;;;;60.70;28.30;;;;;;;-2.96;67.20;100412.53;107007;1260;264228;-67
2024/01/14 08:47:27;;;;;;;58.40;27.70;;;;;;;-2.62;66.08;100404.20;107199;1256;99199;-67
2024/01/14 08:49:56;;;;;;;53.40;27.50;;;;;;;-2.22;64.26;100400.65;107237;1259;113116;-67
2024/01/14 08:52:24;;;;;;;61.40;29.40;;;;;;;-1.98;63.84;100396.32;107203;1256;108728;-67
2024/01/14 08:54:54;;;;;;;63.30;31.30;;;;;;;-1.81;63.91;100393.66;107208;1256;109381;-67
2024/01/14 08:57:24;;;;;;;64.20;31.10;;;;;;;-1.71;64.26;100388.13;107211;1256;99186;-67
2024/01/14 08:59:52;;;;;;;58.90;30.80;;;;;;;-1.49;63.87;100381.55;107218;1260;99195;-67
2024/01/14 09:02:20;;;;;;;64.40;31.80;;;;;;;-1.41;62.89;100380.50;107233;1256;113181;-67
2024/01/14 09:04:49;;;;;;;58.90;31.80;;;;;;;-1.40;62.74;100379.02;107205;1256;107743;-66
2024/01/14 09:07:18;;;;;;;64.00;31.50;;;;;;;-1.29;63.18;100375.88;107168;1256;107979;-67
2024/01/14 09:09:48;;;;;;;72.70;34.50;;;;;;;-1.14;62.65;100368.38;107196;1256;99894;-67
2024/01/14 09:12:16;;;;;;;62.60;33.60;;;;;;;-1.11;62.37;100361.88;107251;1256;99723;-68
2024/01/14 09:14:44;;;;;;;64.00;32.40;;;;;;;-1.00;62.05;100358.02;107243;1256;112200;-67
2024/01/14 09:17:13;;;;;;;66.80;32.40;;;;;;;-0.80;62.14;100356.52;107280;1257;107513;-66
2024/01/14 09:19:41;;;;;;;56.80;33.10;;;;;;;-0.72;62.08;100351.59;107277;1255;107717;-66
2024/01/14 09:22:09;;;;;;;58.50;28.20;;;;;;;-0.77;61.48;100353.93;107278;1255;99234;-66
2024/01/14 09:24:43;;;;;;;60.70;29.00;;;;;;;-0.79;61.14;100352.11;107270;1257;99202;-67
2024/01/14 09:27:15;;;;;;;59.70;29.30;;;;;;;-0.81;60.36;100350.09;107220;1256;112792;-67
2024/01/14 09:29:44;;;;;;;56.60;28.80;;;;;;;-0.80;60.57;100347.92;107276;1257;107108;-65
2024/01/14 09:32:12;;;;;;;64.10;32.00;;;;;;;-0.86;60.00;100342.08;107235;1257;108834;-66
2024/01/14 09:34:40;;;;;;;57.90;30.60;;;;;;;-0.90;60.39;100342.95;107150;1260;99200;-67
2024/01/14 09:37:09;;;;;;;57.40;30.50;;;;;;;-0.84;60.60;100344.26;107009;1256;99237;-68
2024/01/14 09:39:38;;;;;;;56.80;29.00;;;;;;;-0.81;59.63;100345.69;107168;1257;113245;-66
2024/01/14 09:42:37;;;;;;;63.00;32.20;;;;;;;-0.93;59.34;100340.09;107227;1256;106208;-66
2024/01/14 09:45:06;;;;;;;58.00;30.50;;;;;;;-0.86;58.57;100336.60;107062;1259;108208;-65
2024/01/14 09:47:35;;;;;;;60.80;30.10;;;;;;;-0.82;59.16;100333.79;107113;1257;99189;-67
2024/01/14 09:50:06;;;;;;;61.00;30.80;;;;;;;-0.69;58.43;100332.95;107119;1258;99086;-65
2024/01/14 09:52:37;;;;;;;58.00;29.30;;;;;;;-0.59;59.09;100334.23;107094;1258;111649;-65
2024/01/14 09:55:06;;;;;;;57.20;30.30;;;;;;;-0.10;59.47;100332.15;107227;1256;107484;-65
2024/01/14 09:57:35;;;;;;;54.70;29.90;;;;;;;0.55;58.67;100330.69;107213;1256;107103;-66
2024/01/14 10:00:05;;;;;;;55.40;30.90;;;;;;;0.94;57.67;100328.79;107231;1257;99071;-65
2024/01/14 10:02:34;;;;;;;53.20;29.90;;;;;;;1.19;57.82;100321.40;107266;1256;99197;-64
2024/01/14 10:05:02;;;;;;;59.00;31.60;;;;;;;1.22;57.00;100314.50;107237;1257;113274;-65
2024/01/14 10:07:32;;;;;;;61.90;34.30;;;;;;;1.10;56.52;100314.45;107238;1256;107662;-65
2024/01/14 10:10:01;;;;;;;55.00;31.20;;;;;;;1.07;56.49;100313.24;107215;1256;108685;-64
2024/01/14 10:12:30;;;;;;;58.70;32.30;;;;;;;1.14;56.18;100308.43;107224;1256;99183;-65
2024/01/14 10:15:00;;;;;;;60.80;33.00;;;;;;;1.59;56.13;100295.61;107258;1256;99217;-65
2024/01/14 10:17:29;;;;;;;57.60;32.80;;;;;;;2.50;56.79;100287.12;107302;1256;112579;-64
2024/01/14 10:19:58;;;;;;;58.80;33.20;;;;;;;3.37;54.98;100279.95;107248;1256;107675;-65
2024/01/14 10:22:29;;;;;;;57.10;33.80;;;;;;;3.97;55.02;100274.16;107182;1260;108544;-65
2024/01/14 10:24:57;;;;;;;59.60;33.80;;;;;;;4.43;53.47;100268.13;107243;1256;99838;-66
2024/01/14 10:27:26;;;;;;;57.50;35.10;;;;;;;4.72;53.63;100274.40;107347;1256;99205;-65
2024/01/14 10:30:10;;;;;;;61.80;34.40;;;;;;;4.76;51.27;100268.08;107218;1256;113120;-65
2024/01/14 10:32:41;;;;;;;61.40;34.80;;;;;;;4.56;51.74;100262.20;107264;1260;107345;-64
2024/01/14 10:35:30;;;;;;;57.30;34.30;;;;;;;4.42;52.50;100254.20;107285;1256;107270;-64
2024/01/14 10:38:01;;;;;;;62.50;33.50;;;;;;;4.48;52.87;100250.77;107304;1257;99187;-65
2024/01/14 10:40:30;;;;;;;52.70;31.70;;;;;;;4.61;52.23;100245.73;107286;1257;99150;-64
2024/01/14 10:42:59;;;;;;;58.90;35.40;;;;;;;4.50;51.43;100237.25;107208;1256;113131;-65
2024/01/14 10:45:27;;;;;;;60.90;35.10;;;;;;;4.45;50.93;100238.30;107232;1256;107779;-64
2024/01/14 10:48:04;;;;;;;58.60;34.50;;;;;;;4.26;50.88;100229.54;107231;1256;106916;-67
2024/01/14 10:50:33;;;;;;;;;;;;;;;4.02;50.23;100231.03;107251;1257;99150;-65
2024/01/14 10:53:29;;;;;;;54.30;30.80;;;;;;;4.13;50.85;100226.05;107269;1256;99075;-66
2024/01/14 10:56:01;;;;;;;57.30;34.10;;;;;;;4.36;49.10;100221.38;107220;1256;113028;-64
2024/01/14 10:58:32;;;;;;;59.20;34.40;;;;;;;4.30;49.53;100218.23;107287;1255;107066;-66
2024/01/14 11:01:05;;;;;;;60.00;33.60;;;;;;;4.36;50.33;100217.28;107248;1255;107707;-65
2024/01/14 11:03:34;;;;;;;51.70;31.50;;;;;;;4.29;50.10;100213.58;107291;1256;99198;-65
2024/01/14 11:06:06;;;;;;;58.50;33.20;;;;;;;4.13;50.48;100211.81;107257;1262;99179;-65